Condiții Actuale
Senin
În Mare Parte



Presiune
1009,92 (hPa) - 29,82 (inHG)
Vizibilitate

10.0 (km) - 6.2 (mile)
   Temperatura
29  °C
Temperatura
18  °C
Pct. Rouă
51  %
 Umiditate
   Viteza Vântului
9  kts
10  mph
16  km/h
4.5  m/s
   Direcția Vântului
N
45°
E
90°
135°
S
180°
225°
V
270°
315°
 60°

Est Nord
Est
   Date Aeroport
LROP
Aeroportul Internațional Henri Coandă
Metar :LROP 181630Z 06009KT CAVOK 29/18 Q1010 NOSIG
Joi 18 August 18:30 pm
  Informații despre METAR
METAR este cel mai comun format din lume pentru transmiterea datelor și observațiilor meteo. Este standardizat de Organizația Internațională de Aviație Civilă (ICAO), ceea ce îl face sa fie ușur de înțeles peste tot în lume.
   Informații despre API
Date Furnizate de
https://www.checkwx.com/weather/LROP

Meteorologie de Aviație, furnizor de rapoarte meteo METAR, TAF, AIRMET, SIGMET și OUTLOOK
   © Info
Scripturi SVG/PHP dezvoltate de weather34.com pentru folosire în template-ul weather34 © 2015-2022

Ghid Informativ furnizat de Metar-Wikipedia